Jollyville, Texas
Current Conditions -  °F | °C
As of 2:51 AM on Friday 31 Oct 2014 (Local Time) from KATT Reporting Station
Light Rain Light Rain  
Wind Chill: 63°   Ceiling: 3700
Heat Index: 63°   Visibility: 10mi
Dew Point: 61°   Wind: 3mph
Humidity: 93%   Direction: 40°NE
Pressure: 30.17"   Gusts: NA
Location:  30.44°N, 97.77°W
Report Text: KATT 310751Z AUTO 04003KT 10SM -RA BKN037 BKN048 OVC060 17/16 A3017 RMK AO2 RAB14 SLP208 P0025 T01720161
Loading
Personal Weather Stations






























Interactive Weather Map
Tropical Storm Tracking
New forecast layout! Learn more

10-Day Weather Forecast

Advertisements
Track Severe Weather on mobile